createdAt,value
2018-01-05T00:01:33.054Z,97565.62
2018-01-05T00:04:00.121Z,97575.69
2018-01-05T00:06:26.453Z,97581.80
2018-01-05T00:08:52.725Z,97591.83
2018-01-05T00:11:18.987Z,97596.59
2018-01-05T00:13:45.403Z,97578.37
2018-01-05T00:16:11.677Z,97577.70
2018-01-05T00:18:37.906Z,97568.11
2018-01-05T00:21:04.219Z,97564.55
2018-01-05T00:23:31.227Z,97565.42
2018-01-05T00:25:57.531Z,97570.52
2018-01-05T00:28:23.764Z,97557.95
2018-01-05T00:30:50.020Z,97585.98
2018-01-05T00:33:16.244Z,97544.32
2018-01-05T00:35:42.499Z,97588.72
2018-01-05T00:38:08.729Z,97602.00
2018-01-05T00:40:35.805Z,97612.86
2018-01-05T00:43:02.039Z,97624.29
2018-01-05T00:45:28.311Z,97626.61
2018-01-05T00:47:54.557Z,97628.95
2018-01-05T00:50:20.828Z,97639.24
2018-01-05T00:52:47.096Z,97640.64
2018-01-05T00:55:13.341Z,97640.25
2018-01-05T00:57:39.614Z,97645.84
2018-01-05T01:00:05.891Z,97654.52
2018-01-05T01:02:32.206Z,97657.97
2018-01-05T01:04:58.474Z,97651.90
2018-01-05T01:07:25.496Z,97654.70
2018-01-05T01:09:51.737Z,97669.87
2018-01-05T01:12:18.044Z,97671.52
2018-01-05T01:14:44.339Z,97687.56
2018-01-05T01:17:10.596Z,97684.05
2018-01-05T01:19:36.870Z,97684.30
2018-01-05T01:22:03.104Z,97711.89
2018-01-05T01:24:30.112Z,97698.22
2018-01-05T01:26:56.348Z,97714.91
2018-01-05T01:29:22.588Z,97703.55
2018-01-05T01:31:48.864Z,97717.19
2018-01-05T01:34:15.112Z,97713.62
2018-01-05T01:36:41.422Z,97712.64
2018-01-05T01:39:08.389Z,97706.41
2018-01-05T01:41:34.675Z,97723.83
2018-01-05T01:44:01.681Z,97721.45
2018-01-05T01:46:27.935Z,97727.50
2018-01-05T01:48:54.988Z,97734.95
2018-01-05T01:51:21.237Z,97749.33
2018-01-05T01:53:48.281Z,97759.70
2018-01-05T01:56:15.279Z,97751.78
2018-01-05T01:58:41.577Z,97754.18
2018-01-05T02:01:07.898Z,97757.23
2018-01-05T02:03:34.983Z,97744.48
2018-01-05T02:06:01.250Z,97781.06
2018-01-05T02:08:27.580Z,97774.34
2018-01-05T02:10:53.851Z,97784.27
2018-01-05T02:13:20.094Z,97791.06
2018-01-05T02:15:46.416Z,97790.11
2018-01-05T02:18:12.668Z,97796.24
2018-01-05T02:20:38.946Z,97785.88
2018-01-05T02:23:05.913Z,97776.88
2018-01-05T02:25:32.978Z,97809.56
2018-01-05T02:27:59.331Z,97813.48
2018-01-05T02:30:25.640Z,97811.46
2018-01-05T02:32:51.919Z,97859.05
2018-01-05T02:35:18.155Z,97798.02
2018-01-05T02:37:44.411Z,97817.88
2018-01-05T02:40:10.646Z,97826.06
2018-01-05T02:42:36.989Z,97826.73
2018-01-05T02:45:03.248Z,97849.02
2018-01-05T02:47:29.483Z,97845.13
2018-01-05T02:49:55.757Z,97844.42
2018-01-05T02:52:22.812Z,97847.33
2018-01-05T02:54:49.059Z,97846.70
2018-01-05T02:57:15.353Z,97864.58
2018-01-05T02:59:42.377Z,97877.49
2018-01-05T03:02:08.670Z,97875.09
2018-01-05T03:04:34.963Z,97885.84
2018-01-05T03:07:02.094Z,97870.27
2018-01-05T03:09:28.396Z,97884.92
2018-01-05T03:11:54.692Z,97862.78
2018-01-05T03:14:21.032Z,97877.78
2018-01-05T03:16:47.276Z,97880.81
2018-01-05T03:19:13.554Z,97892.50
2018-01-05T03:21:39.890Z,97900.11
2018-01-05T03:24:07.882Z,97906.17
2018-01-05T03:26:34.173Z,97896.00
2018-01-05T03:29:00.426Z,97899.18
2018-01-05T03:31:27.467Z,97898.42
2018-01-05T03:33:54.759Z,97894.89
2018-01-05T03:36:21.069Z,97900.95
2018-01-05T03:38:48.063Z,97906.31
2018-01-05T03:41:14.353Z,97906.78
2018-01-05T03:43:40.659Z,97911.80
2018-01-05T03:46:08.040Z,97918.38
2018-01-05T03:48:34.290Z,97923.27
2018-01-05T03:51:00.596Z,97923.88
2018-01-05T03:53:26.844Z,97925.47
2018-01-05T03:55:53.136Z,97949.91
2018-01-05T03:58:20.092Z,97943.47
2018-01-05T04:00:47.128Z,97933.52
2018-01-05T04:03:14.108Z,97938.64
2018-01-05T04:05:40.386Z,97949.66
2018-01-05T04:08:06.640Z,97938.97
2018-01-05T04:10:33.706Z,97931.81
2018-01-05T04:13:00.004Z,97933.62
2018-01-05T04:15:26.301Z,97938.23
2018-01-05T04:17:52.534Z,97950.77
2018-01-05T04:20:18.811Z,97951.59
2018-01-05T04:22:45.875Z,97954.78
2018-01-05T04:25:12.162Z,97952.59
2018-01-05T04:27:38.435Z,97950.87
2018-01-05T04:32:39.357Z,97968.10
2018-01-05T04:35:05.672Z,97966.49
2018-01-05T04:37:32.011Z,97964.53
2018-01-05T04:39:58.359Z,97976.45
2018-01-05T04:42:25.371Z,97967.80
2018-01-05T04:44:51.639Z,97959.75
2018-01-05T04:47:18.669Z,97965.84
2018-01-05T04:49:45.003Z,97985.09
2018-01-05T04:52:11.251Z,97972.41
2018-01-05T04:54:38.287Z,97983.02
2018-01-05T04:57:04.612Z,97987.31
2018-01-05T04:59:30.857Z,97978.31
2018-01-05T05:01:57.901Z,97977.88
2018-01-05T05:04:24.947Z,97983.38
2018-01-05T05:06:51.932Z,97973.73
2018-01-05T05:09:18.209Z,97969.89
2018-01-05T05:11:44.510Z,97968.36
2018-01-05T05:14:10.808Z,97982.60
2018-01-05T05:16:37.119Z,97996.80
2018-01-05T05:19:04.147Z,97991.63
2018-01-05T05:21:37.367Z,97989.28
2018-01-05T05:24:04.363Z,97999.53
2018-01-05T05:26:30.654Z,97999.90
2018-01-05T05:28:56.919Z,98002.69
2018-01-05T05:31:23.253Z,97988.47
2018-01-05T05:33:49.561Z,97987.80
2018-01-05T05:36:15.871Z,97954.97
2018-01-05T05:38:42.170Z,97958.14
2018-01-05T05:41:08.453Z,97976.10
2018-01-05T05:43:35.326Z,97960.03
2018-01-05T05:46:01.600Z,97981.95
2018-01-05T05:48:28.635Z,97984.50
2018-01-05T05:50:54.921Z,97989.72
2018-01-05T05:53:21.195Z,98001.38
2018-01-05T05:55:48.230Z,97990.13
2018-01-05T05:58:14.476Z,97990.63
2018-01-05T06:00:41.610Z,97998.04
2018-01-05T06:03:07.876Z,98010.16
2018-01-05T06:05:35.033Z,98014.95
2018-01-05T06:08:01.329Z,98018.41
2018-01-05T06:10:27.635Z,98017.11
2018-01-05T06:12:53.917Z,98013.56
2018-01-05T06:15:20.735Z,98012.91
2018-01-05T06:17:47.835Z,98011.92
2018-01-05T06:20:14.101Z,98014.55
2018-01-05T06:22:40.369Z,98024.91
2018-01-05T06:25:06.670Z,98027.19
2018-01-05T06:27:32.971Z,98019.90
2018-01-05T06:29:59.247Z,98012.81
2018-01-05T06:32:26.312Z,98021.43
2018-01-05T06:34:52.562Z,98016.67
2018-01-05T06:37:18.910Z,98029.83
2018-01-05T06:39:45.158Z,98026.98
2018-01-05T06:42:11.440Z,98025.44
2018-01-05T06:44:37.715Z,98029.29
2018-01-05T06:47:03.976Z,98032.98
2018-01-05T06:49:30.998Z,98034.53
2018-01-05T06:51:57.319Z,98040.37
2018-01-05T06:54:23.580Z,98038.41
2018-01-05T06:56:50.616Z,98036.33
2018-01-05T06:59:16.882Z,98034.63
2018-01-05T07:01:43.170Z,98043.55
2018-01-05T07:04:09.506Z,98036.08
2018-01-05T07:06:35.798Z,98034.59
2018-01-05T07:09:02.081Z,98045.91
2018-01-05T07:11:29.400Z,98037.11
2018-01-05T07:13:55.651Z,98001.43
2018-01-05T07:16:22.693Z,98024.22
2018-01-05T07:18:49.133Z,98027.91
2018-01-05T07:21:15.695Z,98013.82
2018-01-05T07:23:42.141Z,98034.60
2018-01-05T07:26:08.747Z,98038.79
2018-01-05T07:28:35.815Z,98047.65
2018-01-05T07:31:02.078Z,98034.75
2018-01-05T07:33:28.420Z,98038.31
2018-01-05T07:35:54.695Z,98052.71
2018-01-05T07:38:21.722Z,98045.50
2018-01-05T07:40:48.034Z,98046.93
2018-01-05T07:43:14.459Z,98029.98
2018-01-05T07:45:40.744Z,98034.42
2018-01-05T07:48:07.905Z,98031.23
2018-01-05T07:50:34.257Z,98029.84
2018-01-05T07:53:00.776Z,98025.38
2018-01-05T07:55:27.040Z,98044.88
2018-01-05T07:57:53.309Z,98034.27
2018-01-05T08:00:20.326Z,98062.66
2018-01-05T08:02:46.647Z,98045.58
2018-01-05T08:05:12.927Z,98030.44
2018-01-05T08:07:39.934Z,98040.97
2018-01-05T08:10:06.216Z,98032.25
2018-01-05T08:12:32.473Z,98045.83
2018-01-05T08:14:58.721Z,98059.73
2018-01-05T08:17:25.071Z,98026.14
2018-01-05T08:19:52.089Z,98029.91
2018-01-05T08:22:18.345Z,98043.56
2018-01-05T08:24:44.651Z,98041.13
2018-01-05T08:27:10.909Z,98043.09
2018-01-05T08:29:37.197Z,98046.84
2018-01-05T08:32:03.480Z,98046.51
2018-01-05T08:34:29.760Z,98036.89
2018-01-05T08:36:56.042Z,98053.25
2018-01-05T08:39:23.036Z,98051.05
2018-01-05T08:41:49.344Z,98037.48
2018-01-05T08:44:15.640Z,98051.05
2018-01-05T08:46:42.122Z,98048.28
2018-01-05T08:49:08.394Z,98045.11
2018-01-05T08:51:34.674Z,98048.03
2018-01-05T08:54:00.964Z,98046.58
2018-01-05T08:56:27.233Z,98042.25
2018-01-05T08:58:53.504Z,98037.72
2018-01-05T09:01:20.026Z,98044.34
2018-01-05T09:03:46.402Z,98050.69
2018-01-05T09:06:13.457Z,98054.07
2018-01-05T09:08:40.506Z,98063.48
2018-01-05T09:11:06.841Z,98063.00
2018-01-05T09:13:33.863Z,98084.64
2018-01-05T09:16:00.202Z,98067.23
2018-01-05T09:18:26.495Z,98079.08
2018-01-05T09:20:52.830Z,98087.29
2018-01-05T09:23:20.147Z,98084.48
2018-01-05T09:25:46.643Z,98079.48
2018-01-05T09:28:13.656Z,98069.20
2018-01-05T09:30:40.001Z,98065.28
2018-01-05T09:33:06.366Z,98063.14
2018-01-05T09:35:32.764Z,98070.67
2018-01-05T09:37:59.084Z,98069.73
2018-01-05T09:40:25.364Z,98062.94
2018-01-05T09:42:52.422Z,98087.72
2018-01-05T09:45:19.455Z,98080.53
2018-01-05T09:47:46.571Z,98087.48
2018-01-05T09:50:12.869Z,98098.56
2018-01-05T09:52:39.196Z,98094.16
2018-01-05T09:55:05.478Z,98093.91
2018-01-05T09:57:31.793Z,98089.80
2018-01-05T09:59:58.093Z,98089.21
2018-01-05T10:02:24.467Z,98099.95
2018-01-05T10:04:50.783Z,98100.58
2018-01-05T10:07:17.103Z,98101.44
2018-01-05T10:09:43.448Z,98097.91
2018-01-05T10:12:10.937Z,98105.37
2018-01-05T10:14:37.237Z,98099.53
2018-01-05T10:17:03.646Z,98094.02
2018-01-05T10:19:30.036Z,98096.75
2018-01-05T10:21:57.158Z,98105.77
2018-01-05T10:24:23.526Z,98102.80
2018-01-05T10:26:50.636Z,98095.36
2018-01-05T10:29:17.070Z,98099.80
2018-01-05T10:31:43.406Z,98116.09
2018-01-05T10:34:09.771Z,98108.55
2018-01-05T10:36:36.858Z,98098.71
2018-01-05T10:39:03.169Z,98100.45
2018-01-05T10:41:29.780Z,98102.00
2018-01-05T10:43:56.665Z,98142.16
2018-01-05T10:46:23.136Z,98101.68
2018-01-05T10:48:49.439Z,98103.97
2018-01-05T10:51:15.919Z,98109.28
2018-01-05T10:53:42.309Z,98110.77
2018-01-05T10:56:08.631Z,98126.43
2018-01-05T10:58:35.120Z,98129.03
2018-01-05T11:01:02.175Z,98114.72
2018-01-05T11:03:29.277Z,98123.89
2018-01-05T11:05:55.591Z,98123.48
2018-01-05T11:08:21.930Z,98135.87
2018-01-05T11:10:48.199Z,98125.44
2018-01-05T11:13:14.549Z,98103.94
2018-01-05T11:15:41.520Z,98107.94
2018-01-05T11:18:07.892Z,98121.54
2018-01-05T11:20:34.184Z,98115.48
2018-01-05T11:23:00.517Z,98112.93
2018-01-05T11:25:26.814Z,98109.64
2018-01-05T11:27:53.866Z,98109.11
2018-01-05T11:30:20.850Z,98117.86
2018-01-05T11:32:47.150Z,98101.77
2018-01-05T11:35:14.204Z,98108.88
2018-01-05T11:37:40.519Z,98112.63
2018-01-05T11:40:07.533Z,98112.56
2018-01-05T11:42:33.826Z,98091.31
2018-01-05T11:45:00.127Z,98115.52
2018-01-05T11:47:26.479Z,98125.56
2018-01-05T11:49:53.503Z,98134.28
2018-01-05T11:52:20.521Z,98129.89
2018-01-05T11:54:46.823Z,98132.70
2018-01-05T11:57:13.095Z,98132.48
2018-01-05T11:59:39.501Z,98123.58
2018-01-05T12:02:05.938Z,98116.00
2018-01-05T12:04:32.210Z,98117.72
2018-01-05T12:06:58.471Z,98132.42
2018-01-05T12:09:24.780Z,98133.38
2018-01-05T12:11:51.819Z,98122.83
2018-01-05T12:14:18.056Z,98107.73
2018-01-05T12:16:45.124Z,98129.08
2018-01-05T12:19:11.446Z,98135.44
2018-01-05T12:21:38.503Z,98138.81
2018-01-05T12:24:04.737Z,98137.48
2018-01-05T12:26:31.068Z,98131.74
2018-01-05T12:28:57.380Z,98140.47
2018-01-05T12:31:24.457Z,98150.47
2018-01-05T12:33:50.722Z,98152.53
2018-01-05T12:36:17.003Z,98149.08
2018-01-05T12:38:43.297Z,98141.52
2018-01-05T12:41:09.559Z,98149.86
2018-01-05T12:43:35.897Z,98157.06
2018-01-05T12:46:02.213Z,98143.25
2018-01-05T12:48:29.249Z,98154.95
2018-01-05T12:50:56.247Z,98159.55
2018-01-05T12:53:22.515Z,98144.45
2018-01-05T12:55:48.855Z,98159.41
2018-01-05T12:58:15.899Z,98137.44
2018-01-05T13:00:42.159Z,98154.91
2018-01-05T13:03:08.465Z,98148.33
2018-01-05T13:05:35.541Z,98135.61
2018-01-05T13:08:01.832Z,98149.37
2018-01-05T13:10:28.181Z,98156.98
2018-01-05T13:12:55.204Z,98163.09
2018-01-05T13:15:21.461Z,98176.04
2018-01-05T13:17:48.520Z,98177.97
2018-01-05T13:20:14.970Z,98191.73
2018-01-05T13:22:41.268Z,98198.31
2018-01-05T13:25:08.288Z,98211.18
2018-01-05T13:27:34.653Z,98209.44
2018-01-05T13:30:01.706Z,98218.80
2018-01-05T13:32:28.747Z,98238.41
2018-01-05T13:34:55.781Z,98243.64
2018-01-05T13:37:22.112Z,98246.12
2018-01-05T13:39:49.191Z,98260.16
2018-01-05T13:42:15.501Z,98243.77
2018-01-05T13:44:42.761Z,98249.52
2018-01-05T13:47:10.713Z,98242.11
2018-01-05T13:49:37.500Z,98238.05
2018-01-05T13:52:04.094Z,98236.12
2018-01-05T13:54:31.493Z,98252.37
2018-01-05T13:56:58.056Z,98245.57
2018-01-05T13:59:24.335Z,98256.98
2018-01-05T14:01:51.559Z,98257.80
2018-01-05T14:04:19.616Z,98266.91
2018-01-05T14:06:46.085Z,98269.80
2018-01-05T14:09:13.370Z,98274.34
2018-01-05T14:11:39.742Z,98258.16
2018-01-05T14:14:06.433Z,98274.69
2018-01-05T14:16:33.492Z,98272.50
2018-01-05T14:19:00.691Z,98275.59
2018-01-05T14:21:27.260Z,98292.39
2018-01-05T14:23:53.770Z,98282.81
2018-01-05T14:26:20.250Z,98275.01
2018-01-05T14:28:46.556Z,98283.67
2018-01-05T14:31:13.572Z,98281.34
2018-01-05T14:33:41.334Z,98283.06
2018-01-05T14:36:08.547Z,98274.40
2018-01-05T14:38:35.493Z,98261.16
2018-01-05T14:41:01.812Z,98268.42
2018-01-05T14:43:28.547Z,98267.51
2018-01-05T14:45:56.208Z,98262.91
2018-01-05T14:48:23.682Z,98267.88
2018-01-05T14:50:50.832Z,98281.30
2018-01-05T14:53:17.920Z,98282.98
2018-01-05T14:55:44.302Z,98278.02
2018-01-05T14:58:17.482Z,98274.27
2018-01-05T15:00:44.552Z,98281.30
2018-01-05T15:03:10.881Z,98276.47
2018-01-05T15:05:37.502Z,98272.29
2018-01-05T15:08:04.570Z,98262.77
2018-01-05T15:10:31.188Z,98268.77
2018-01-05T15:12:58.246Z,98260.15
2018-01-05T15:15:24.652Z,98268.95
2018-01-05T15:17:50.952Z,98256.41
2018-01-05T15:20:17.280Z,98265.45
2018-01-05T15:22:43.604Z,98270.95
2018-01-05T15:25:09.846Z,98276.69
2018-01-05T15:27:36.173Z,98278.81
2018-01-05T15:30:02.843Z,98263.73
2018-01-05T15:32:30.268Z,98267.94
2018-01-05T15:34:57.305Z,98271.98
2018-01-05T15:37:24.212Z,98264.60
2018-01-05T15:39:50.511Z,98277.49
2018-01-05T15:42:17.625Z,98269.14
2018-01-05T15:44:43.952Z,98272.89
2018-01-05T15:47:11.326Z,98280.73
2018-01-05T15:49:42.081Z,98286.86
2018-01-05T15:52:08.692Z,98296.92
2018-01-05T15:54:35.726Z,98305.48
2018-01-05T15:57:02.079Z,98308.34
2018-01-05T15:59:28.423Z,98311.98
2018-01-05T16:01:55.493Z,98301.61
2018-01-05T16:04:22.565Z,98318.10
2018-01-05T16:06:49.902Z,98326.61
2018-01-05T16:09:23.281Z,98321.57
2018-01-05T16:11:49.607Z,98316.70
2018-01-05T16:14:15.970Z,98318.20
2018-01-05T16:16:46.575Z,98325.25
2018-01-05T16:19:12.859Z,98328.70
2018-01-05T16:21:39.269Z,98333.30
2018-01-05T16:24:06.276Z,98330.30
2018-01-05T16:26:32.653Z,98328.62
2018-01-05T16:28:59.686Z,98341.45
2018-01-05T16:31:26.740Z,98331.58
2018-01-05T16:33:53.752Z,98330.89
2018-01-05T16:36:22.096Z,98290.50
2018-01-05T16:38:55.598Z,98298.48
2018-01-05T16:41:22.942Z,98303.88
2018-01-05T16:43:49.213Z,98304.34
2018-01-05T16:46:15.558Z,98324.91
2018-01-05T16:48:41.828Z,98334.83
2018-01-05T16:51:08.101Z,98329.92
2018-01-05T16:53:45.560Z,98348.97
2018-01-05T16:56:12.794Z,98351.80
2018-01-05T16:58:39.082Z,98353.66
2018-01-05T17:01:05.437Z,98353.02
2018-01-05T17:03:31.766Z,98347.86
2018-01-05T17:05:59.815Z,98357.58
2018-01-05T17:08:26.095Z,98358.75
2018-01-05T17:10:52.384Z,98357.22
2018-01-05T17:13:18.728Z,98363.86
2018-01-05T17:15:46.801Z,98367.14
2018-01-05T17:18:13.108Z,98369.96
2018-01-05T17:20:40.422Z,98376.22
2018-01-05T17:23:08.910Z,98379.86
2018-01-05T17:25:35.194Z,98383.79
2018-01-05T17:28:01.660Z,98386.30
2018-01-05T17:30:27.967Z,98394.25
2018-01-05T17:32:55.060Z,98391.13
2018-01-05T17:35:21.400Z,98389.31
2018-01-05T17:37:47.698Z,98391.86
2018-01-05T17:40:13.986Z,98400.05
2018-01-05T17:42:42.360Z,98404.80
2018-01-05T17:45:10.092Z,98395.09
2018-01-05T17:47:36.391Z,98401.09
2018-01-05T17:50:02.692Z,98402.12
2018-01-05T17:52:28.995Z,98405.50
2018-01-05T17:54:55.278Z,98411.62
2018-01-05T17:57:22.309Z,98415.72
2018-01-05T17:59:49.315Z,98409.77
2018-01-05T18:02:15.876Z,98425.94
2018-01-05T18:04:42.158Z,98432.25
2018-01-05T18:07:08.490Z,98434.22
2018-01-05T18:09:34.943Z,98439.70
2018-01-05T18:12:01.214Z,98448.87
2018-01-05T18:14:27.532Z,98446.80
2018-01-05T18:16:53.823Z,98450.42
2018-01-05T18:19:20.138Z,98449.87
2018-01-05T18:21:46.462Z,98463.79
2018-01-05T18:24:13.618Z,98470.64
2018-01-05T18:26:39.904Z,98479.94
2018-01-05T18:29:06.225Z,98472.91
2018-01-05T18:31:32.780Z,98478.80
2018-01-05T18:33:59.817Z,98489.52
2018-01-05T18:36:26.090Z,98487.55
2018-01-05T18:38:53.282Z,98501.09
2018-01-05T18:41:19.657Z,98501.88
2018-01-05T18:43:46.232Z,98499.13
2018-01-05T18:46:12.979Z,98512.09
2018-01-05T18:48:39.319Z,98512.72
2018-01-05T18:51:05.723Z,98516.58
2018-01-05T18:53:32.916Z,98517.22
2018-01-05T18:55:59.451Z,98519.51
2018-01-05T18:58:25.791Z,98523.39
2018-01-05T19:00:52.241Z,98529.45
2018-01-05T19:03:18.653Z,98524.59
2018-01-05T19:05:45.047Z,98508.11
2018-01-05T19:08:12.624Z,98512.55
2018-01-05T19:10:40.039Z,98518.05
2018-01-05T19:13:10.618Z,98508.88
2018-01-05T19:15:37.029Z,98508.61
2018-01-05T19:18:03.567Z,98508.19
2018-01-05T19:20:29.941Z,98494.34
2018-01-05T19:22:56.621Z,98483.70
2018-01-05T19:25:24.053Z,98479.06
2018-01-05T19:27:50.948Z,98468.25
2018-01-05T19:30:17.735Z,98456.54
2018-01-05T19:32:44.309Z,98464.00
2018-01-05T19:35:10.746Z,98443.64
2018-01-05T19:37:37.252Z,98460.16
2018-01-05T19:40:04.548Z,98465.44
2018-01-05T19:42:31.081Z,98466.84
2018-01-05T19:44:58.524Z,98477.29
2018-01-05T19:47:25.187Z,98480.88
2018-01-05T19:49:51.815Z,98479.56
2018-01-05T19:52:18.249Z,98491.23
2018-01-05T19:54:44.896Z,98480.80
2018-01-05T19:57:11.705Z,98494.26
2018-01-05T19:59:38.975Z,98480.84
2018-01-05T20:02:05.347Z,98479.19
2018-01-05T20:04:31.914Z,98482.15
2018-01-05T20:06:58.315Z,98475.13
2018-01-05T20:09:24.789Z,98478.22
2018-01-05T20:11:51.929Z,98482.22
2018-01-05T20:14:19.160Z,98486.45
2018-01-05T20:16:45.552Z,98479.72
2018-01-05T20:19:12.910Z,98477.80
2018-01-05T20:21:47.044Z,98472.57
2018-01-05T20:24:13.422Z,98456.52
2018-01-05T20:26:40.616Z,98462.20
2018-01-05T20:29:06.962Z,98465.07
2018-01-05T20:31:33.311Z,98475.47
2018-01-05T20:33:59.670Z,98492.64
2018-01-05T20:36:26.110Z,98500.88
2018-01-05T20:38:53.316Z,98497.13
2018-01-05T20:41:19.990Z,98486.98
2018-01-05T20:43:46.291Z,98492.48
2018-01-05T20:46:12.845Z,98483.30
2018-01-05T20:48:39.349Z,98482.12
2018-01-05T20:51:06.760Z,98483.48
2018-01-05T20:53:35.227Z,98487.82
2018-01-05T20:56:01.587Z,98492.20
2018-01-05T20:58:27.917Z,98489.61
2018-01-05T21:01:00.270Z,98492.23
2018-01-05T21:03:27.662Z,98490.94
2018-01-05T21:05:54.065Z,98496.50
2018-01-05T21:08:21.220Z,98502.16
2018-01-05T21:10:49.283Z,98499.70
2018-01-05T21:13:16.985Z,98503.28
2018-01-05T21:15:43.849Z,98505.97
2018-01-05T21:18:10.191Z,98502.05
2018-01-05T21:20:37.442Z,98491.33
2018-01-05T21:23:03.716Z,98497.92
2018-01-05T21:25:31.056Z,98515.20
2018-01-05T21:27:59.194Z,98523.63
2018-01-05T21:30:25.544Z,98532.22
2018-01-05T21:32:51.881Z,98524.13
2018-01-05T21:35:18.988Z,98531.83
2018-01-05T21:37:45.519Z,98526.05
2018-01-05T21:40:11.846Z,98523.86
2018-01-05T21:42:38.235Z,98519.44
2018-01-05T21:45:05.389Z,98524.05
2018-01-05T21:47:31.717Z,98522.59
2018-01-05T21:49:58.206Z,98524.58
2018-01-05T21:52:24.565Z,98529.19
2018-01-05T21:54:50.926Z,98529.73
2018-01-05T21:57:19.101Z,98536.06
2018-01-05T21:59:46.157Z,98522.06
2018-01-05T22:02:12.584Z,98525.49
2018-01-05T22:04:39.706Z,98517.98
2018-01-05T22:07:05.982Z,98524.60
2018-01-05T22:09:33.004Z,98527.08
2018-01-05T22:12:00.348Z,98523.03
2018-01-05T22:14:26.703Z,98518.22
2018-01-05T22:16:53.028Z,98526.25
2018-01-05T22:19:19.282Z,98536.56
2018-01-05T22:21:45.597Z,98533.61
2018-01-05T22:24:12.637Z,98538.41
2018-01-05T22:26:39.683Z,98544.94
2018-01-05T22:29:06.683Z,98550.10
2018-01-05T22:31:32.997Z,98553.20
2018-01-05T22:33:59.357Z,98548.38
2018-01-05T22:36:25.676Z,98546.07
2018-01-05T22:38:52.013Z,98551.67
2018-01-05T22:41:18.396Z,98549.77
2018-01-05T22:43:48.632Z,98557.61
2018-01-05T22:46:14.916Z,98553.63
2018-01-05T22:48:41.230Z,98554.78
2018-01-05T22:51:07.496Z,98564.42
2018-01-05T22:53:34.550Z,98568.69
2018-01-05T22:56:01.577Z,98565.84
2018-01-05T22:58:27.876Z,98570.91
2018-01-05T23:00:54.311Z,98577.23
2018-01-05T23:03:20.659Z,98578.83
2018-01-05T23:05:46.936Z,98576.30
2018-01-05T23:08:13.937Z,98587.04
2018-01-05T23:10:40.222Z,98595.14
2018-01-05T23:13:06.543Z,98598.94
2018-01-05T23:15:33.615Z,98598.66
2018-01-05T23:17:59.845Z,98601.50
2018-01-05T23:20:26.129Z,98606.45
2018-01-05T23:22:52.390Z,98602.12
2018-01-05T23:25:18.674Z,98613.18
2018-01-05T23:30:30.776Z,98617.94
2018-01-05T23:35:36.982Z,98619.70
2018-01-05T23:38:03.277Z,98620.33
2018-01-05T23:40:29.563Z,98626.93
2018-01-05T23:42:56.541Z,98631.89
2018-01-05T23:45:22.798Z,98636.23
2018-01-05T23:47:49.100Z,98641.38
2018-01-05T23:50:15.375Z,98646.13
2018-01-05T23:52:41.652Z,98648.13
2018-01-05T23:55:07.971Z,98640.51
2018-01-05T23:57:34.281Z,98638.02
